sensor_id;sensor_type;location;lat;lon;timestamp;P1;durP1;ratioP1;P2;durP2;ratioP2
6787;SDS011;3431;47.966;10.268;2023-11-19T00:00:16;1.05;;;1.02;;
6787;SDS011;3431;47.966;10.268;2023-11-19T00:00:39;1.30;;;1.15;;
6787;SDS011;3431;47.966;10.268;2023-11-19T00:01:01;1.20;;;1.10;;
6787;SDS011;3431;47.966;10.268;2023-11-19T00:01:22;1.08;;;1.08;;
6787;SDS011;3431;47.966;10.268;2023-11-19T00:01:44;1.05;;;1.05;;
6787;SDS011;3431;47.966;10.268;2023-11-19T00:02:07;1.10;;;1.10;;
6787;SDS011;3431;47.966;10.268;2023-11-19T00:02:30;1.30;;;1.30;;
6787;SDS011;3431;47.966;10.268;2023-11-19T00:02:51;1.30;;;1.30;;
6787;SDS011;3431;47.966;10.268;2023-11-19T00:03:13;1.20;;;1.10;;
6787;SDS011;3431;47.966;10.268;2023-11-19T00:03:34;1.00;;;1.00;;
6787;SDS011;3431;47.966;10.268;2023-11-19T00:03:56;1.08;;;1.02;;
6787;SDS011;3431;47.966;10.268;2023-11-19T00:04:18;1.40;;;1.30;;
6787;SDS011;3431;47.966;10.268;2023-11-19T00:04:40;1.20;;;1.20;;
6787;SDS011;3431;47.966;10.268;2023-11-19T00:05:02;1.10;;;1.10;;
6787;SDS011;3431;47.966;10.268;2023-11-19T00:05:24;1.05;;;1.05;;
6787;SDS011;3431;47.966;10.268;2023-11-19T00:05:45;0.90;;;0.90;;
6787;SDS011;3431;47.966;10.268;2023-11-19T00:06:07;1.00;;;1.00;;
6787;SDS011;3431;47.966;10.268;2023-11-19T00:06:32;1.10;;;1.10;;
6787;SDS011;3431;47.966;10.268;2023-11-19T00:06:53;1.10;;;1.10;;
6787;SDS011;3431;47.966;10.268;2023-11-19T00:07:15;1.17;;;1.10;;
6787;SDS011;3431;47.966;10.268;2023-11-19T00:07:36;1.33;;;1.10;;
6787;SDS011;3431;47.966;10.268;2023-11-19T00:08:01;1.30;;;1.20;;
6787;SDS011;3431;47.966;10.268;2023-11-19T00:08:24;1.08;;;1.00;;
6787;SDS011;3431;47.966;10.268;2023-11-19T00:08:45;1.05;;;1.00;;
6787;SDS011;3431;47.966;10.268;2023-11-19T00:09:08;1.10;;;1.10;;
6787;SDS011;3431;47.966;10.268;2023-11-19T00:09:29;1.10;;;1.10;;
6787;SDS011;3431;47.966;10.268;2023-11-19T00:09:52;1.08;;;1.08;;
6787;SDS011;3431;47.966;10.268;2023-11-19T00:10:16;1.27;;;1.17;;
6787;SDS011;3431;47.966;10.268;2023-11-19T00:10:39;1.30;;;1.30;;
6787;SDS011;3431;47.966;10.268;2023-11-19T00:11:01;1.20;;;1.20;;
6787;SDS011;3431;47.966;10.268;2023-11-19T00:11:23;1.20;;;1.20;;
6787;SDS011;3431;47.966;10.268;2023-11-19T00:11:45;2.28;;;1.27;;
6787;SDS011;3431;47.966;10.268;2023-11-19T00:12:08;2.63;;;1.10;;
6787;SDS011;3431;47.966;10.268;2023-11-19T00:12:31;1.20;;;1.20;;
6787;SDS011;3431;47.966;10.268;2023-11-19T00:12:52;1.17;;;1.17;;
6787;SDS011;3431;47.966;10.268;2023-11-19T00:13:14;1.10;;;1.10;;
6787;SDS011;3431;47.966;10.268;2023-11-19T00:13:35;1.00;;;1.00;;
6787;SDS011;3431;47.966;10.268;2023-11-19T00:13:57;1.15;;;1.15;;
6787;SDS011;3431;47.966;10.268;2023-11-19T00:14:18;1.10;;;1.10;;
6787;SDS011;3431;47.966;10.268;2023-11-19T00:14:41;1.20;;;1.10;;
6787;SDS011;3431;47.966;10.268;2023-11-19T00:15:03;1.20;;;1.10;;
6787;SDS011;3431;47.966;10.268;2023-11-19T00:15:25;1.40;;;1.30;;
6787;SDS011;3431;47.966;10.268;2023-11-19T00:15:47;1.10;;;1.10;;
6787;SDS011;3431;47.966;10.268;2023-11-19T00:16:09;1.00;;;1.00;;
6787;SDS011;3431;47.966;10.268;2023-11-19T00:16:30;1.00;;;1.00;;
6787;SDS011;3431;47.966;10.268;2023-11-19T00:16:53;1.10;;;1.10;;
6787;SDS011;3431;47.966;10.268;2023-11-19T00:17:14;1.20;;;1.20;;
6787;SDS011;3431;47.966;10.268;2023-11-19T00:17:36;1.10;;;1.10;;
6787;SDS011;3431;47.966;10.268;2023-11-19T00:17:57;1.20;;;1.20;;
6787;SDS011;3431;47.966;10.268;2023-11-19T00:18:20;1.15;;;1.15;;
6787;SDS011;3431;47.966;10.268;2023-11-19T00:18:41;0.98;;;0.98;;
6787;SDS011;3431;47.966;10.268;2023-11-19T00:19:03;1.27;;;1.25;;
6787;SDS011;3431;47.966;10.268;2023-11-19T00:19:24;1.20;;;1.20;;
6787;SDS011;3431;47.966;10.268;2023-11-19T00:19:47;1.15;;;1.15;;
6787;SDS011;3431;47.966;10.268;2023-11-19T00:20:10;1.20;;;1.20;;
6787;SDS011;3431;47.966;10.268;2023-11-19T00:20:32;1.20;;;1.20;;
6787;SDS011;3431;47.966;10.268;2023-11-19T00:20:54;1.35;;;1.25;;
6787;SDS011;3431;47.966;10.268;2023-11-19T00:21:16;1.00;;;1.00;;
6787;SDS011;3431;47.966;10.268;2023-11-19T00:21:37;1.08;;;1.08;;
6787;SDS011;3431;47.966;10.268;2023-11-19T00:21:59;1.10;;;1.10;;
6787;SDS011;3431;47.966;10.268;2023-11-19T00:22:23;1.10;;;1.10;;
6787;SDS011;3431;47.966;10.268;2023-11-19T00:22:46;1.10;;;1.10;;
6787;SDS011;3431;47.966;10.268;2023-11-19T00:23:11;1.23;;;1.20;;
6787;SDS011;3431;47.966;10.268;2023-11-19T00:23:33;1.13;;;1.13;;
6787;SDS011;3431;47.966;10.268;2023-11-19T00:23:54;1.40;;;1.30;;
6787;SDS011;3431;47.966;10.268;2023-11-19T00:24:16;1.25;;;1.25;;
6787;SDS011;3431;47.966;10.268;2023-11-19T00:24:38;1.20;;;1.20;;
6787;SDS011;3431;47.966;10.268;2023-11-19T00:25:01;1.45;;;1.40;;
6787;SDS011;3431;47.966;10.268;2023-11-19T00:25:24;1.42;;;1.38;;
6787;SDS011;3431;47.966;10.268;2023-11-19T00:25:46;1.48;;;1.30;;
6787;SDS011;3431;47.966;10.268;2023-11-19T00:26:08;1.20;;;1.20;;
6787;SDS011;3431;47.966;10.268;2023-11-19T00:26:31;1.55;;;1.45;;
6787;SDS011;3431;47.966;10.268;2023-11-19T00:26:54;1.20;;;1.20;;
6787;SDS011;3431;47.966;10.268;2023-11-19T00:27:17;1.10;;;1.10;;
6787;SDS011;3431;47.966;10.268;2023-11-19T00:27:39;1.20;;;1.20;;
6787;SDS011;3431;47.966;10.268;2023-11-19T00:28:00;1.35;;;1.30;;
6787;SDS011;3431;47.966;10.268;2023-11-19T00:28:22;1.40;;;1.30;;
6787;SDS011;3431;47.966;10.268;2023-11-19T00:28:44;1.60;;;1.50;;
6787;SDS011;3431;47.966;10.268;2023-11-19T00:29:08;1.20;;;1.20;;
6787;SDS011;3431;47.966;10.268;2023-11-19T00:29:29;1.20;;;1.20;;
6787;SDS011;3431;47.966;10.268;2023-11-19T00:29:51;1.15;;;1.15;;
6787;SDS011;3431;47.966;10.268;2023-11-19T00:30:13;1.15;;;1.15;;
6787;SDS011;3431;47.966;10.268;2023-11-19T00:30:35;1.30;;;1.20;;
6787;SDS011;3431;47.966;10.268;2023-11-19T00:30:57;1.40;;;1.30;;
6787;SDS011;3431;47.966;10.268;2023-11-19T00:31:19;1.40;;;1.30;;
6787;SDS011;3431;47.966;10.268;2023-11-19T00:31:41;1.50;;;1.20;;
6787;SDS011;3431;47.966;10.268;2023-11-19T00:32:03;1.48;;;1.38;;
6787;SDS011;3431;47.966;10.268;2023-11-19T00:32:26;1.50;;;1.42;;
6787;SDS011;3431;47.966;10.268;2023-11-19T00:32:47;1.58;;;1.48;;
6787;SDS011;3431;47.966;10.268;2023-11-19T00:33:10;1.45;;;1.35;;
6787;SDS011;3431;47.966;10.268;2023-11-19T00:33:33;1.35;;;1.30;;
6787;SDS011;3431;47.966;10.268;2023-11-19T00:33:54;1.58;;;1.48;;
6787;SDS011;3431;47.966;10.268;2023-11-19T00:34:16;1.48;;;1.38;;
6787;SDS011;3431;47.966;10.268;2023-11-19T00:34:41;1.33;;;1.33;;
6787;SDS011;3431;47.966;10.268;2023-11-19T00:35:04;1.55;;;1.45;;
6787;SDS011;3431;47.966;10.268;2023-11-19T00:35:28;1.30;;;1.30;;
6787;SDS011;3431;47.966;10.268;2023-11-19T00:35:49;1.30;;;1.30;;
6787;SDS011;3431;47.966;10.268;2023-11-19T00:36:11;1.45;;;1.38;;
6787;SDS011;3431;47.966;10.268;2023-11-19T00:36:33;1.45;;;1.35;;
6787;SDS011;3431;47.966;10.268;2023-11-19T00:36:55;1.50;;;1.40;;
6787;SDS011;3431;47.966;10.268;2023-11-19T00:37:17;1.52;;;1.42;;
6787;SDS011;3431;47.966;10.268;2023-11-19T00:37:38;1.48;;;1.38;;
6787;SDS011;3431;47.966;10.268;2023-11-19T00:38:00;1.20;;;1.20;;
6787;SDS011;3431;47.966;10.268;2023-11-19T00:38:23;1.40;;;1.30;;
6787;SDS011;3431;47.966;10.268;2023-11-19T00:38:45;1.95;;;1.25;;
6787;SDS011;3431;47.966;10.268;2023-11-19T00:39:08;1.50;;;1.40;;
6787;SDS011;3431;47.966;10.268;2023-11-19T00:39:29;1.40;;;1.30;;
6787;SDS011;3431;47.966;10.268;2023-11-19T00:39:51;1.42;;;1.33;;
6787;SDS011;3431;47.966;10.268;2023-11-19T00:40:14;1.60;;;1.50;;
6787;SDS011;3431;47.966;10.268;2023-11-19T00:40:38;1.48;;;1.40;;
6787;SDS011;3431;47.966;10.268;2023-11-19T00:41:01;1.17;;;1.17;;
6787;SDS011;3431;47.966;10.268;2023-11-19T00:41:23;1.20;;;1.20;;
6787;SDS011;3431;47.966;10.268;2023-11-19T00:41:46;1.27;;;1.27;;
6787;SDS011;3431;47.966;10.268;2023-11-19T00:42:07;1.27;;;1.27;;
6787;SDS011;3431;47.966;10.268;2023-11-19T00:42:31;1.50;;;1.40;;
6787;SDS011;3431;47.966;10.268;2023-11-19T00:42:53;1.50;;;1.40;;
6787;SDS011;3431;47.966;10.268;2023-11-19T00:43:15;1.30;;;1.20;;
6787;SDS011;3431;47.966;10.268;2023-11-19T00:43:36;1.30;;;1.20;;
6787;SDS011;3431;47.966;10.268;2023-11-19T00:43:58;1.33;;;1.27;;
6787;SDS011;3431;47.966;10.268;2023-11-19T00:44:20;1.50;;;1.42;;
6787;SDS011;3431;47.966;10.268;2023-11-19T00:44:42;1.60;;;1.50;;
6787;SDS011;3431;47.966;10.268;2023-11-19T00:45:05;1.40;;;1.30;;
6787;SDS011;3431;47.966;10.268;2023-11-19T00:45:30;1.20;;;1.20;;
6787;SDS011;3431;47.966;10.268;2023-11-19T00:45:51;1.17;;;1.17;;
6787;SDS011;3431;47.966;10.268;2023-11-19T00:46:13;1.42;;;1.33;;
6787;SDS011;3431;47.966;10.268;2023-11-19T00:46:35;1.40;;;1.30;;
6787;SDS011;3431;47.966;10.268;2023-11-19T00:46:57;1.48;;;1.38;;
6787;SDS011;3431;47.966;10.268;2023-11-19T00:47:20;1.35;;;1.35;;
6787;SDS011;3431;47.966;10.268;2023-11-19T00:47:41;1.58;;;1.48;;
6787;SDS011;3431;47.966;10.268;2023-11-19T00:48:04;1.35;;;1.33;;
6787;SDS011;3431;47.966;10.268;2023-11-19T00:48:28;1.50;;;1.38;;
6787;SDS011;3431;47.966;10.268;2023-11-19T00:48:49;1.35;;;1.30;;
6787;SDS011;3431;47.966;10.268;2023-11-19T00:49:11;1.20;;;1.20;;
6787;SDS011;3431;47.966;10.268;2023-11-19T00:49:33;1.25;;;1.17;;
6787;SDS011;3431;47.966;10.268;2023-11-19T00:49:55;1.50;;;1.40;;
6787;SDS011;3431;47.966;10.268;2023-11-19T00:50:17;1.47;;;1.37;;
6787;SDS011;3431;47.966;10.268;2023-11-19T00:50:41;1.67;;;1.58;;
6787;SDS011;3431;47.966;10.268;2023-11-19T00:51:05;1.50;;;1.40;;
6787;SDS011;3431;47.966;10.268;2023-11-19T00:51:27;1.45;;;1.35;;
6787;SDS011;3431;47.966;10.268;2023-11-19T00:51:49;1.50;;;1.38;;
6787;SDS011;3431;47.966;10.268;2023-11-19T00:52:11;1.95;;;1.40;;
6787;SDS011;3431;47.966;10.268;2023-11-19T00:52:33;1.90;;;1.50;;
6787;SDS011;3431;47.966;10.268;2023-11-19T00:52:54;1.40;;;1.30;;
6787;SDS011;3431;47.966;10.268;2023-11-19T00:53:17;1.60;;;1.50;;
6787;SDS011;3431;47.966;10.268;2023-11-19T00:53:38;1.40;;;1.30;;
6787;SDS011;3431;47.966;10.268;2023-11-19T00:54:00;1.23;;;1.23;;
6787;SDS011;3431;47.966;10.268;2023-11-19T00:54:21;1.50;;;1.40;;
6787;SDS011;3431;47.966;10.268;2023-11-19T00:54:46;2.67;;;1.50;;
6787;SDS011;3431;47.966;10.268;2023-11-19T00:55:07;1.45;;;1.35;;
6787;SDS011;3431;47.966;10.268;2023-11-19T00:55:32;1.13;;;1.13;;
6787;SDS011;3431;47.966;10.268;2023-11-19T00:55:53;1.55;;;1.45;;
6787;SDS011;3431;47.966;10.268;2023-11-19T00:56:15;1.55;;;1.45;;
6787;SDS011;3431;47.966;10.268;2023-11-19T00:56:38;1.60;;;1.50;;
6787;SDS011;3431;47.966;10.268;2023-11-19T00:57:00;1.30;;;1.20;;
6787;SDS011;3431;47.966;10.268;2023-11-19T00:57:22;1.45;;;1.35;;
6787;SDS011;3431;47.966;10.268;2023-11-19T00:57:45;1.40;;;1.30;;
6787;SDS011;3431;47.966;10.268;2023-11-19T00:58:06;1.70;;;1.50;;
6787;SDS011;3431;47.966;10.268;2023-11-19T00:58:28;1.73;;;1.50;;
6787;SDS011;3431;47.966;10.268;2023-11-19T00:58:50;1.52;;;1.42;;
6787;SDS011;3431;47.966;10.268;2023-11-19T00:59:11;1.50;;;1.40;;
6787;SDS011;3431;47.966;10.268;2023-11-19T00:59:34;1.42;;;1.40;;
6787;SDS011;3431;47.966;10.268;2023-11-19T00:59:57;1.48;;;1.38;;
6787;SDS011;3431;47.966;10.268;2023-11-19T01:00:19;1.45;;;1.35;;
6787;SDS011;3431;47.966;10.268;2023-11-19T01:00:44;1.52;;;1.40;;
6787;SDS011;3431;47.966;10.268;2023-11-19T01:01:05;1.40;;;1.30;;
6787;SDS011;3431;47.966;10.268;2023-11-19T01:01:27;1.48;;;1.38;;
6787;SDS011;3431;47.966;10.268;2023-11-19T01:01:50;1.50;;;1.40;;
6787;SDS011;3431;47.966;10.268;2023-11-19T01:02:12;1.48;;;1.40;;
6787;SDS011;3431;47.966;10.268;2023-11-19T01:02:34;1.40;;;1.30;;
6787;SDS011;3431;47.966;10.268;2023-11-19T01:02:56;1.60;;;1.50;;
6787;SDS011;3431;47.966;10.268;2023-11-19T01:03:18;1.50;;;1.40;;
6787;SDS011;3431;47.966;10.268;2023-11-19T01:03:40;1.20;;;1.20;;
6787;SDS011;3431;47.966;10.268;2023-11-19T01:04:02;1.40;;;1.30;;
6787;SDS011;3431;47.966;10.268;2023-11-19T01:04:23;1.40;;;1.30;;
6787;SDS011;3431;47.966;10.268;2023-11-19T01:04:45;1.50;;;1.30;;
6787;SDS011;3431;47.966;10.268;2023-11-19T01:05:08;1.58;;;1.48;;
6787;SDS011;3431;47.966;10.268;2023-11-19T01:05:30;1.48;;;1.40;;
6787;SDS011;3431;47.966;10.268;2023-11-19T01:05:53;1.40;;;1.30;;
6787;SDS011;3431;47.966;10.268;2023-11-19T01:06:26;1.42;;;1.40;;
6787;SDS011;3431;47.966;10.268;2023-11-19T01:06:48;1.30;;;1.30;;
6787;SDS011;3431;47.966;10.268;2023-11-19T01:07:09;1.20;;;1.20;;
6787;SDS011;3431;47.966;10.268;2023-11-19T01:07:33;1.23;;;1.23;;
6787;SDS011;3431;47.966;10.268;2023-11-19T01:07:56;2.00;;;1.30;;
6787;SDS011;3431;47.966;10.268;2023-11-19T01:08:17;1.60;;;1.50;;
6787;SDS011;3431;47.966;10.268;2023-11-19T01:08:39;1.70;;;1.48;;
6787;SDS011;3431;47.966;10.268;2023-11-19T01:09:03;1.48;;;1.40;;
6787;SDS011;3431;47.966;10.268;2023-11-19T01:09:24;1.55;;;1.45;;
6787;SDS011;3431;47.966;10.268;2023-11-19T01:09:48;1.52;;;1.42;;
6787;SDS011;3431;47.966;10.268;2023-11-19T01:10:09;1.60;;;1.50;;
6787;SDS011;3431;47.966;10.268;2023-11-19T01:10:32;1.67;;;1.58;;
6787;SDS011;3431;47.966;10.268;2023-11-19T01:10:54;1.60;;;1.50;;
6787;SDS011;3431;47.966;10.268;2023-11-19T01:11:19;1.15;;;1.15;;
6787;SDS011;3431;47.966;10.268;2023-11-19T01:11:42;1.50;;;1.40;;
6787;SDS011;3431;47.966;10.268;2023-11-19T01:12:05;1.45;;;1.38;;
6787;SDS011;3431;47.966;10.268;2023-11-19T01:12:27;1.55;;;1.50;;
6787;SDS011;3431;47.966;10.268;2023-11-19T01:12:48;1.60;;;1.50;;
6787;SDS011;3431;47.966;10.268;2023-11-19T01:13:10;1.90;;;1.80;;
6787;SDS011;3431;47.966;10.268;2023-11-19T01:13:31;1.60;;;1.50;;
6787;SDS011;3431;47.966;10.268;2023-11-19T01:13:54;1.30;;;1.30;;
6787;SDS011;3431;47.966;10.268;2023-11-19T01:14:15;1.30;;;1.30;;
6787;SDS011;3431;47.966;10.268;2023-11-19T01:14:38;1.60;;;1.50;;
6787;SDS011;3431;47.966;10.268;2023-11-19T01:15:00;1.55;;;1.45;;
6787;SDS011;3431;47.966;10.268;2023-11-19T01:15:24;1.52;;;1.40;;
6787;SDS011;3431;47.966;10.268;2023-11-19T01:15:47;1.77;;;1.67;;
6787;SDS011;3431;47.966;10.268;2023-11-19T01:16:08;1.70;;;1.60;;
6787;SDS011;3431;47.966;10.268;2023-11-19T01:16:30;1.48;;;1.38;;
6787;SDS011;3431;47.966;10.268;2023-11-19T01:16:52;1.65;;;1.55;;
6787;SDS011;3431;47.966;10.268;2023-11-19T01:17:14;1.63;;;1.52;;
6787;SDS011;3431;47.966;10.268;2023-11-19T01:17:37;1.30;;;1.30;;
6787;SDS011;3431;47.966;10.268;2023-11-19T01:17:59;1.50;;;1.40;;
6787;SDS011;3431;47.966;10.268;2023-11-19T01:18:22;1.40;;;1.30;;
6787;SDS011;3431;47.966;10.268;2023-11-19T01:18:44;1.42;;;1.35;;
6787;SDS011;3431;47.966;10.268;2023-11-19T01:19:07;1.60;;;1.50;;
6787;SDS011;3431;47.966;10.268;2023-11-19T01:19:29;1.77;;;1.67;;
6787;SDS011;3431;47.966;10.268;2023-11-19T01:19:51;1.33;;;1.33;;
6787;SDS011;3431;47.966;10.268;2023-11-19T01:20:15;1.45;;;1.40;;
6787;SDS011;3431;47.966;10.268;2023-11-19T01:20:36;1.40;;;1.30;;
6787;SDS011;3431;47.966;10.268;2023-11-19T01:20:58;1.48;;;1.38;;
6787;SDS011;3431;47.966;10.268;2023-11-19T01:21:19;1.60;;;1.50;;
6787;SDS011;3431;47.966;10.268;2023-11-19T01:21:43;1.70;;;1.60;;
6787;SDS011;3431;47.966;10.268;2023-11-19T01:22:04;1.60;;;1.50;;
6787;SDS011;3431;47.966;10.268;2023-11-19T01:22:28;1.42;;;1.40;;
6787;SDS011;3431;47.966;10.268;2023-11-19T01:22:49;1.90;;;1.80;;
6787;SDS011;3431;47.966;10.268;2023-11-19T01:23:12;1.58;;;1.48;;
6787;SDS011;3431;47.966;10.268;2023-11-19T01:23:33;2.05;;;1.58;;
6787;SDS011;3431;47.966;10.268;2023-11-19T01:23:55;1.70;;;1.60;;
6787;SDS011;3431;47.966;10.268;2023-11-19T01:24:16;1.73;;;1.63;;
6787;SDS011;3431;47.966;10.268;2023-11-19T01:24:39;1.80;;;1.70;;
6787;SDS011;3431;47.966;10.268;2023-11-19T01:25:01;1.60;;;1.50;;
6787;SDS011;3431;47.966;10.268;2023-11-19T01:25:23;1.20;;;1.20;;
6787;SDS011;3431;47.966;10.268;2023-11-19T01:25:46;1.20;;;1.20;;
6787;SDS011;3431;47.966;10.268;2023-11-19T01:26:09;1.30;;;1.20;;
6787;SDS011;3431;47.966;10.268;2023-11-19T01:26:31;1.35;;;1.35;;
6787;SDS011;3431;47.966;10.268;2023-11-19T01:26:53;1.40;;;1.30;;
6787;SDS011;3431;47.966;10.268;2023-11-19T01:27:15;1.63;;;1.52;;
6787;SDS011;3431;47.966;10.268;2023-11-19T01:27:36;1.58;;;1.40;;
6787;SDS011;3431;47.966;10.268;2023-11-19T01:27:58;1.50;;;1.40;;
6787;SDS011;3431;47.966;10.268;2023-11-19T01:28:19;1.45;;;1.40;;
6787;SDS011;3431;47.966;10.268;2023-11-19T01:28:41;1.30;;;1.30;;
6787;SDS011;3431;47.966;10.268;2023-11-19T01:29:05;1.60;;;1.50;;
6787;SDS011;3431;47.966;10.268;2023-11-19T01:29:27;1.35;;;1.30;;
6787;SDS011;3431;47.966;10.268;2023-11-19T01:29:48;1.40;;;1.30;;
6787;SDS011;3431;47.966;10.268;2023-11-19T01:30:10;1.60;;;1.50;;
6787;SDS011;3431;47.966;10.268;2023-11-19T01:30:33;1.50;;;1.40;;
6787;SDS011;3431;47.966;10.268;2023-11-19T01:30:55;1.25;;;1.23;;
6787;SDS011;3431;47.966;10.268;2023-11-19T01:31:17;1.63;;;1.52;;
6787;SDS011;3431;47.966;10.268;2023-11-19T01:31:39;1.45;;;1.35;;
6787;SDS011;3431;47.966;10.268;2023-11-19T01:32:01;1.60;;;1.50;;
6787;SDS011;3431;47.966;10.268;2023-11-19T01:32:22;1.70;;;1.60;;
6787;SDS011;3431;47.966;10.268;2023-11-19T01:32:44;1.35;;;1.35;;
6787;SDS011;3431;47.966;10.268;2023-11-19T01:33:06;1.30;;;1.20;;
6787;SDS011;3431;47.966;10.268;2023-11-19T01:33:29;1.10;;;1.10;;
6787;SDS011;3431;47.966;10.268;2023-11-19T01:33:50;1.30;;;1.30;;
6787;SDS011;3431;47.966;10.268;2023-11-19T01:34:12;1.50;;;1.40;;
6787;SDS011;3431;47.966;10.268;2023-11-19T01:34:34;1.35;;;1.35;;
6787;SDS011;3431;47.966;10.268;2023-11-19T01:34:56;1.20;;;1.20;;
6787;SDS011;3431;47.966;10.268;2023-11-19T01:35:18;1.20;;;1.20;;
6787;SDS011;3431;47.966;10.268;2023-11-19T01:35:41;1.30;;;1.30;;
6787;SDS011;3431;47.966;10.268;2023-11-19T01:36:02;1.10;;;1.10;;
6787;SDS011;3431;47.966;10.268;2023-11-19T01:36:25;1.40;;;1.40;;
6787;SDS011;3431;47.966;10.268;2023-11-19T01:36:46;1.50;;;1.40;;
6787;SDS011;3431;47.966;10.268;2023-11-19T01:37:09;1.60;;;1.50;;
6787;SDS011;3431;47.966;10.268;2023-11-19T01:37:32;1.13;;;1.13;;
6787;SDS011;3431;47.966;10.268;2023-11-19T01:37:55;1.23;;;1.23;;
6787;SDS011;3431;47.966;10.268;2023-11-19T01:38:17;1.20;;;1.20;;
6787;SDS011;3431;47.966;10.268;2023-11-19T01:38:38;1.10;;;1.10;;
6787;SDS011;3431;47.966;10.268;2023-11-19T01:39:00;1.20;;;1.20;;
6787;SDS011;3431;47.966;10.268;2023-11-19T01:39:21;1.30;;;1.30;;
6787;SDS011;3431;47.966;10.268;2023-11-19T01:39:44;1.50;;;1.40;;
6787;SDS011;3431;47.966;10.268;2023-11-19T01:40:06;1.20;;;1.20;;
6787;SDS011;3431;47.966;10.268;2023-11-19T01:40:31;1.40;;;1.40;;
6787;SDS011;3431;47.966;10.268;2023-11-19T01:40:57;1.45;;;1.42;;
6787;SDS011;3431;47.966;10.268;2023-11-19T01:41:18;1.45;;;1.35;;
6787;SDS011;3431;47.966;10.268;2023-11-19T01:41:41;1.38;;;1.27;;
6787;SDS011;3431;47.966;10.268;2023-11-19T01:42:03;1.33;;;1.30;;
6787;SDS011;3431;47.966;10.268;2023-11-19T01:42:24;1.20;;;1.20;;
6787;SDS011;3431;47.966;10.268;2023-11-19T01:42:46;1.30;;;1.30;;
6787;SDS011;3431;47.966;10.268;2023-11-19T01:43:10;1.52;;;1.42;;
6787;SDS011;3431;47.966;10.268;2023-11-19T01:43:34;1.20;;;1.20;;
6787;SDS011;3431;47.966;10.268;2023-11-19T01:43:57;1.60;;;1.50;;
6787;SDS011;3431;47.966;10.268;2023-11-19T01:44:19;1.00;;;1.00;;
6787;SDS011;3431;47.966;10.268;2023-11-19T01:44:41;1.17;;;1.17;;
6787;SDS011;3431;47.966;10.268;2023-11-19T01:45:03;1.23;;;1.23;;
6787;SDS011;3431;47.966;10.268;2023-11-19T01:45:28;1.30;;;1.30;;
6787;SDS011;3431;47.966;10.268;2023-11-19T01:45:51;1.13;;;1.13;;
6787;SDS011;3431;47.966;10.268;2023-11-19T01:46:13;1.25;;;1.15;;
6787;SDS011;3431;47.966;10.268;2023-11-19T01:46:35;1.23;;;1.17;;
6787;SDS011;3431;47.966;10.268;2023-11-19T01:46:57;1.20;;;1.10;;
6787;SDS011;3431;47.966;10.268;2023-11-19T01:47:19;1.15;;;1.10;;
6787;SDS011;3431;47.966;10.268;2023-11-19T01:47:41;1.15;;;1.15;;
6787;SDS011;3431;47.966;10.268;2023-11-19T01:48:03;1.15;;;1.15;;
6787;SDS011;3431;47.966;10.268;2023-11-19T01:48:25;1.20;;;1.20;;
6787;SDS011;3431;47.966;10.268;2023-11-19T01:48:47;1.20;;;1.20;;
6787;SDS011;3431;47.966;10.268;2023-11-19T01:49:09;1.13;;;1.13;;
6787;SDS011;3431;47.966;10.268;2023-11-19T01:49:32;1.08;;;1.08;;
6787;SDS011;3431;47.966;10.268;2023-11-19T01:49:55;1.23;;;1.23;;
6787;SDS011;3431;47.966;10.268;2023-11-19T01:50:17;1.52;;;1.42;;
6787;SDS011;3431;47.966;10.268;2023-11-19T01:50:40;1.42;;;1.33;;
6787;SDS011;3431;47.966;10.268;2023-11-19T01:51:02;1.08;;;1.08;;
6787;SDS011;3431;47.966;10.268;2023-11-19T01:51:25;1.00;;;1.00;;
6787;SDS011;3431;47.966;10.268;2023-11-19T01:51:48;1.20;;;1.20;;
6787;SDS011;3431;47.966;10.268;2023-11-19T01:52:10;1.13;;;1.13;;
6787;SDS011;3431;47.966;10.268;2023-11-19T01:52:32;1.20;;;1.20;;
6787;SDS011;3431;47.966;10.268;2023-11-19T01:52:55;1.20;;;1.20;;
6787;SDS011;3431;47.966;10.268;2023-11-19T01:53:18;1.10;;;1.10;;
6787;SDS011;3431;47.966;10.268;2023-11-19T01:53:41;1.10;;;1.10;;
6787;SDS011;3431;47.966;10.268;2023-11-19T01:54:04;1.27;;;1.27;;
6787;SDS011;3431;47.966;10.268;2023-11-19T01:54:27;1.13;;;1.13;;
6787;SDS011;3431;47.966;10.268;2023-11-19T01:54:49;1.17;;;1.17;;
6787;SDS011;3431;47.966;10.268;2023-11-19T01:55:11;1.13;;;1.13;;
6787;SDS011;3431;47.966;10.268;2023-11-19T01:55:33;1.30;;;1.30;;
6787;SDS011;3431;47.966;10.268;2023-11-19T01:55:57;1.33;;;1.27;;
6787;SDS011;3431;47.966;10.268;2023-11-19T01:56:19;1.27;;;1.27;;
6787;SDS011;3431;47.966;10.268;2023-11-19T01:56:42;1.05;;;1.05;;
6787;SDS011;3431;47.966;10.268;2023-11-19T01:57:04;1.10;;;1.10;;
6787;SDS011;3431;47.966;10.268;2023-11-19T01:57:25;0.90;;;0.90;;
6787;SDS011;3431;47.966;10.268;2023-11-19T01:57:47;1.00;;;1.00;;
6787;SDS011;3431;47.966;10.268;2023-11-19T01:58:11;1.10;;;1.10;;
6787;SDS011;3431;47.966;10.268;2023-11-19T01:58:33;1.40;;;1.20;;
6787;SDS011;3431;47.966;10.268;2023-11-19T01:58:55;1.20;;;1.10;;
6787;SDS011;3431;47.966;10.268;2023-11-19T01:59:17;1.45;;;1.35;;
6787;SDS011;3431;47.966;10.268;2023-11-19T01:59:39;1.42;;;1.33;;
6787;SDS011;3431;47.966;10.268;2023-11-19T02:00:03;1.10;;;1.10;;
6787;SDS011;3431;47.966;10.268;2023-11-19T02:00:34;0.90;;;0.90;;
6787;SDS011;3431;47.966;10.268;2023-11-19T02:00:56;1.10;;;1.10;;
6787;SDS011;3431;47.966;10.268;2023-11-19T02:01:18;1.08;;;1.08;;
6787;SDS011;3431;47.966;10.268;2023-11-19T02:01:40;1.00;;;1.00;;
6787;SDS011;3431;47.966;10.268;2023-11-19T02:02:02;1.15;;;1.15;;
6787;SDS011;3431;47.966;10.268;2023-11-19T02:02:26;1.20;;;1.20;;
6787;SDS011;3431;47.966;10.268;2023-11-19T02:02:47;1.13;;;1.13;;
6787;SDS011;3431;47.966;10.268;2023-11-19T02:03:09;1.00;;;1.00;;
6787;SDS011;3431;47.966;10.268;2023-11-19T02:03:31;0.95;;;0.95;;
6787;SDS011;3431;47.966;10.268;2023-11-19T02:03:53;1.20;;;1.20;;
6787;SDS011;3431;47.966;10.268;2023-11-19T02:04:15;1.15;;;1.15;;
6787;SDS011;3431;47.966;10.268;2023-11-19T02:04:37;1.00;;;1.00;;
6787;SDS011;3431;47.966;10.268;2023-11-19T02:04:59;1.00;;;1.00;;
6787;SDS011;3431;47.966;10.268;2023-11-19T02:05:21;1.10;;;1.10;;
6787;SDS011;3431;47.966;10.268;2023-11-19T02:05:44;1.20;;;1.20;;
6787;SDS011;3431;47.966;10.268;2023-11-19T02:06:08;1.10;;;1.10;;
6787;SDS011;3431;47.966;10.268;2023-11-19T02:06:31;1.10;;;1.10;;
6787;SDS011;3431;47.966;10.268;2023-11-19T02:06:56;1.00;;;1.00;;
6787;SDS011;3431;47.966;10.268;2023-11-19T02:07:19;1.00;;;1.00;;
6787;SDS011;3431;47.966;10.268;2023-11-19T02:07:41;1.10;;;1.10;;
6787;SDS011;3431;47.966;10.268;2023-11-19T02:08:03;1.08;;;1.08;;
6787;SDS011;3431;47.966;10.268;2023-11-19T02:08:24;1.23;;;1.23;;
6787;SDS011;3431;47.966;10.268;2023-11-19T02:08:47;1.13;;;1.13;;
6787;SDS011;3431;47.966;10.268;2023-11-19T02:09:08;1.20;;;1.20;;
6787;SDS011;3431;47.966;10.268;2023-11-19T02:09:30;1.08;;;1.08;;
6787;SDS011;3431;47.966;10.268;2023-11-19T02:09:52;1.15;;;1.15;;
6787;SDS011;3431;47.966;10.268;2023-11-19T02:10:13;1.20;;;1.20;;
6787;SDS011;3431;47.966;10.268;2023-11-19T02:10:37;1.25;;;1.20;;
6787;SDS011;3431;47.966;10.268;2023-11-19T02:11:01;1.10;;;1.10;;
6787;SDS011;3431;47.966;10.268;2023-11-19T02:11:24;1.00;;;1.00;;
6787;SDS011;3431;47.966;10.268;2023-11-19T02:11:50;1.00;;;1.00;;
6787;SDS011;3431;47.966;10.268;2023-11-19T02:12:11;1.25;;;1.15;;
6787;SDS011;3431;47.966;10.268;2023-11-19T02:12:33;1.50;;;1.40;;
6787;SDS011;3431;47.966;10.268;2023-11-19T02:12:54;1.15;;;1.15;;
6787;SDS011;3431;47.966;10.268;2023-11-19T02:13:16;1.00;;;1.00;;
6787;SDS011;3431;47.966;10.268;2023-11-19T02:13:39;1.10;;;1.10;;
6787;SDS011;3431;47.966;10.268;2023-11-19T02:14:02;1.40;;;1.30;;
6787;SDS011;3431;47.966;10.268;2023-11-19T02:14:25;1.50;;;1.25;;
6787;SDS011;3431;47.966;10.268;2023-11-19T02:14:47;1.10;;;1.10;;
6787;SDS011;3431;47.966;10.268;2023-11-19T02:15:09;1.10;;;1.10;;
6787;SDS011;3431;47.966;10.268;2023-11-19T02:15:31;1.13;;;1.13;;
6787;SDS011;3431;47.966;10.268;2023-11-19T02:15:53;1.13;;;1.13;;
6787;SDS011;3431;47.966;10.268;2023-11-19T02:16:15;1.20;;;1.20;;
6787;SDS011;3431;47.966;10.268;2023-11-19T02:16:37;1.20;;;1.20;;